createdAt,value
2024-01-31T00:01:38.606Z,44.60
2024-01-31T00:04:05.327Z,42.28
2024-01-31T00:06:31.974Z,42.22
2024-01-31T00:08:58.496Z,44.30
2024-01-31T00:11:30.027Z,38.17
2024-01-31T00:13:57.440Z,41.17
2024-01-31T00:16:24.160Z,40.80
2024-01-31T00:18:54.364Z,38.08
2024-01-31T00:21:20.992Z,37.03
2024-01-31T00:23:47.508Z,42.28
2024-01-31T00:26:14.051Z,40.35
2024-01-31T00:28:40.722Z,39.38
2024-01-31T00:31:07.253Z,39.00
2024-01-31T00:33:33.822Z,42.13
2024-01-31T00:36:00.466Z,41.75
2024-01-31T00:38:26.954Z,38.10
2024-01-31T00:40:55.418Z,37.80
2024-01-31T00:43:21.936Z,34.95
2024-01-31T00:45:48.529Z,39.67
2024-01-31T00:48:15.176Z,36.88
2024-01-31T00:50:41.710Z,41.13
2024-01-31T00:53:08.178Z,43.05
2024-01-31T00:55:36.742Z,39.17
2024-01-31T00:58:03.444Z,39.45
2024-01-31T01:00:30.008Z,41.95
2024-01-31T01:02:56.515Z,37.10
2024-01-31T01:05:23.139Z,41.22
2024-01-31T01:07:49.868Z,36.35
2024-01-31T01:10:17.068Z,39.85
2024-01-31T01:12:43.865Z,37.83
2024-01-31T01:15:15.724Z,36.72
2024-01-31T01:17:43.556Z,38.22
2024-01-31T01:20:10.227Z,38.10
2024-01-31T01:22:36.908Z,39.60
2024-01-31T01:25:03.632Z,37.72
2024-01-31T01:27:30.214Z,38.70
2024-01-31T01:29:56.710Z,39.05
2024-01-31T01:32:23.207Z,38.15
2024-01-31T01:34:49.785Z,43.30
2024-01-31T01:37:16.500Z,35.35
2024-01-31T01:39:44.507Z,41.25
2024-01-31T01:42:11.069Z,45.35
2024-01-31T01:44:45.561Z,40.85
2024-01-31T01:47:13.534Z,42.22
2024-01-31T01:49:40.248Z,44.33
2024-01-31T01:52:07.531Z,39.72
2024-01-31T01:54:34.187Z,42.00
2024-01-31T01:57:00.818Z,40.03
2024-01-31T01:59:27.329Z,37.10
2024-01-31T02:01:53.888Z,42.97
2024-01-31T02:04:22.576Z,43.30
2024-01-31T02:06:49.654Z,40.20
2024-01-31T02:09:16.398Z,42.67
2024-01-31T02:11:42.939Z,39.05
2024-01-31T02:14:09.412Z,39.75
2024-01-31T02:16:36.042Z,39.80
2024-01-31T02:19:02.608Z,39.45
2024-01-31T02:21:29.632Z,36.95
2024-01-31T02:23:56.153Z,40.65
2024-01-31T02:26:22.641Z,38.30
2024-01-31T02:28:49.114Z,40.60
2024-01-31T02:31:15.654Z,39.10
2024-01-31T02:33:42.214Z,37.78
2024-01-31T02:36:08.735Z,38.65
2024-01-31T02:38:35.241Z,38.70
2024-01-31T02:41:01.760Z,38.90
2024-01-31T02:43:28.464Z,36.92
2024-01-31T02:45:55.003Z,35.80
2024-01-31T02:48:21.582Z,40.50
2024-01-31T02:50:48.118Z,41.45
2024-01-31T02:53:14.713Z,36.53
2024-01-31T02:55:41.303Z,41.55
2024-01-31T02:58:08.621Z,40.55
2024-01-31T03:00:35.231Z,36.13
2024-01-31T03:03:01.727Z,36.65
2024-01-31T03:05:28.331Z,33.15
2024-01-31T03:07:54.808Z,40.20
2024-01-31T03:10:21.345Z,34.85
2024-01-31T03:12:47.845Z,32.95
2024-01-31T03:15:14.314Z,33.20
2024-01-31T03:17:40.840Z,30.40
2024-01-31T03:20:08.140Z,37.72
2024-01-31T03:22:37.686Z,36.53
2024-01-31T03:25:05.612Z,37.15
2024-01-31T03:27:32.145Z,32.15
2024-01-31T03:30:03.152Z,41.85
2024-01-31T03:32:35.138Z,38.03
2024-01-31T03:35:01.739Z,35.97
2024-01-31T03:37:28.452Z,31.90
2024-01-31T03:39:55.307Z,36.63
2024-01-31T03:42:22.325Z,34.20
2024-01-31T03:44:48.861Z,34.05
2024-01-31T03:47:15.575Z,33.08
2024-01-31T03:49:42.437Z,37.47
2024-01-31T03:52:09.021Z,36.22
2024-01-31T03:54:37.569Z,33.42
2024-01-31T03:57:06.058Z,37.50
2024-01-31T03:59:32.549Z,38.72
2024-01-31T04:01:59.161Z,35.80
2024-01-31T04:04:25.728Z,36.55
2024-01-31T04:06:52.504Z,36.03
2024-01-31T04:09:18.998Z,34.97
2024-01-31T04:11:45.492Z,32.05
2024-01-31T04:14:12.040Z,33.55
2024-01-31T04:16:38.567Z,33.28
2024-01-31T04:19:05.282Z,35.03
2024-01-31T04:21:31.817Z,32.53
2024-01-31T04:23:58.417Z,37.60
2024-01-31T04:26:24.898Z,36.67
2024-01-31T04:28:51.383Z,39.22
2024-01-31T04:31:17.970Z,34.67
2024-01-31T04:33:44.725Z,33.33
2024-01-31T04:36:11.483Z,35.35
2024-01-31T04:38:37.993Z,34.17
2024-01-31T04:41:04.534Z,36.72
2024-01-31T04:43:31.363Z,35.38
2024-01-31T04:45:58.076Z,34.40
2024-01-31T04:48:24.754Z,33.85
2024-01-31T04:50:51.512Z,31.90
2024-01-31T04:53:18.080Z,32.28
2024-01-31T04:55:45.933Z,32.38
2024-01-31T04:58:14.217Z,35.90
2024-01-31T05:00:40.885Z,33.97
2024-01-31T05:03:07.521Z,31.15
2024-01-31T05:05:34.336Z,34.47
2024-01-31T05:08:00.925Z,33.13
2024-01-31T05:10:27.481Z,35.05
2024-01-31T05:12:53.976Z,33.03
2024-01-31T05:15:20.466Z,34.40
2024-01-31T05:17:47.048Z,35.40
2024-01-31T05:20:13.646Z,34.50
2024-01-31T05:22:40.328Z,35.65
2024-01-31T05:25:08.671Z,33.10
2024-01-31T05:27:36.965Z,39.53
2024-01-31T05:30:05.366Z,31.75
2024-01-31T05:32:32.603Z,33.20
2024-01-31T05:34:59.218Z,37.85
2024-01-31T05:37:25.861Z,34.95
2024-01-31T05:39:52.347Z,34.95
2024-01-31T05:42:18.832Z,34.25
2024-01-31T05:44:45.327Z,34.95
2024-01-31T05:47:11.832Z,33.10
2024-01-31T05:49:38.589Z,31.30
2024-01-31T05:52:05.587Z,29.60
2024-01-31T05:54:32.094Z,30.27
2024-01-31T05:56:58.593Z,35.95
2024-01-31T05:59:26.554Z,33.13
2024-01-31T06:01:53.331Z,39.78
2024-01-31T06:04:19.948Z,37.63
2024-01-31T06:06:46.485Z,33.80
2024-01-31T06:09:13.665Z,31.20
2024-01-31T06:11:40.354Z,33.55
2024-01-31T06:14:07.493Z,33.33
2024-01-31T06:16:34.414Z,32.05
2024-01-31T06:19:02.092Z,35.20
2024-01-31T06:21:28.592Z,32.95
2024-01-31T06:23:56.645Z,34.45
2024-01-31T06:26:23.871Z,34.47
2024-01-31T06:28:50.451Z,32.78
2024-01-31T06:31:25.780Z,36.50
2024-01-31T06:33:52.580Z,37.35
2024-01-31T06:36:20.686Z,32.95
2024-01-31T06:38:50.886Z,31.42
2024-01-31T06:41:17.669Z,30.80
2024-01-31T06:43:44.404Z,30.63
2024-01-31T06:46:11.031Z,37.95
2024-01-31T06:48:37.662Z,33.05
2024-01-31T06:51:04.204Z,39.13
2024-01-31T06:53:30.676Z,35.90
2024-01-31T06:55:57.237Z,34.95
2024-01-31T06:58:23.973Z,38.17
2024-01-31T07:00:50.551Z,37.90
2024-01-31T07:03:17.789Z,37.70
2024-01-31T07:05:44.334Z,36.17
2024-01-31T07:08:10.931Z,33.93
2024-01-31T07:10:37.916Z,41.97
2024-01-31T07:13:04.539Z,38.58
2024-01-31T07:15:31.123Z,37.72
2024-01-31T07:17:57.701Z,35.67
2024-01-31T07:20:24.248Z,36.53
2024-01-31T07:22:50.811Z,39.75
2024-01-31T07:25:17.617Z,42.33
2024-01-31T07:27:45.474Z,36.58
2024-01-31T07:30:12.275Z,36.03
2024-01-31T07:32:39.916Z,35.35
2024-01-31T07:35:10.557Z,36.20
2024-01-31T07:37:37.897Z,35.63
2024-01-31T07:40:10.689Z,35.63
2024-01-31T07:42:37.833Z,36.33
2024-01-31T07:45:05.799Z,33.25
2024-01-31T07:47:32.458Z,36.20
2024-01-31T07:49:59.034Z,37.63
2024-01-31T07:52:25.708Z,34.53
2024-01-31T07:54:52.194Z,38.15
2024-01-31T07:57:18.698Z,37.63
2024-01-31T07:59:45.175Z,36.42
2024-01-31T08:02:11.672Z,31.65
2024-01-31T08:04:38.228Z,39.15
2024-01-31T08:07:04.878Z,36.70
2024-01-31T08:09:31.407Z,36.90
2024-01-31T08:11:57.904Z,32.70
2024-01-31T08:14:24.411Z,35.25
2024-01-31T08:16:52.320Z,33.92
2024-01-31T08:19:19.090Z,33.55
2024-01-31T08:21:45.647Z,33.80
2024-01-31T08:24:12.165Z,36.42
2024-01-31T08:26:38.679Z,35.22
2024-01-31T08:29:11.506Z,36.45
2024-01-31T08:31:46.673Z,36.45
2024-01-31T08:34:13.995Z,35.80
2024-01-31T08:36:40.888Z,28.40
2024-01-31T08:39:09.496Z,36.85
2024-01-31T08:41:36.940Z,34.63
2024-01-31T08:44:03.428Z,32.70
2024-01-31T08:46:29.987Z,31.93
2024-01-31T08:48:56.610Z,38.33
2024-01-31T08:51:23.718Z,33.97
2024-01-31T08:53:50.258Z,35.75
2024-01-31T08:56:16.992Z,36.35
2024-01-31T08:58:43.734Z,34.90
2024-01-31T09:01:10.378Z,30.27
2024-01-31T09:03:37.045Z,31.80
2024-01-31T09:06:03.785Z,31.37
2024-01-31T09:08:30.357Z,29.80
2024-01-31T09:10:58.986Z,30.92
2024-01-31T09:13:26.013Z,32.80
2024-01-31T09:15:52.782Z,43.63
2024-01-31T09:18:19.421Z,37.83
2024-01-31T09:20:46.011Z,34.47
2024-01-31T09:23:12.618Z,32.50
2024-01-31T09:25:39.208Z,32.93
2024-01-31T09:28:05.954Z,32.33
2024-01-31T09:30:32.468Z,37.10
2024-01-31T09:32:59.033Z,32.07
2024-01-31T09:35:25.604Z,37.53
2024-01-31T09:37:52.194Z,34.93
2024-01-31T09:40:20.690Z,36.57
2024-01-31T09:42:47.931Z,33.23
2024-01-31T09:45:14.924Z,34.77
2024-01-31T09:47:45.011Z,37.53
2024-01-31T09:50:13.460Z,34.27
2024-01-31T09:52:41.260Z,33.17
2024-01-31T09:55:12.292Z,33.27
2024-01-31T09:57:42.867Z,30.53
2024-01-31T10:00:10.031Z,28.17
2024-01-31T10:02:41.689Z,29.23
2024-01-31T10:05:08.642Z,30.63
2024-01-31T10:07:39.263Z,29.40
2024-01-31T10:10:06.150Z,30.83
2024-01-31T10:12:32.756Z,31.27
2024-01-31T10:14:59.284Z,29.00
2024-01-31T10:17:25.836Z,30.77
2024-01-31T10:19:52.857Z,31.50
2024-01-31T10:22:19.872Z,31.97
2024-01-31T10:24:48.177Z,27.00
2024-01-31T10:27:15.416Z,31.13
2024-01-31T10:29:42.376Z,33.13
2024-01-31T10:32:09.252Z,26.20
2024-01-31T10:34:44.639Z,25.07
2024-01-31T10:39:52.103Z,26.00
2024-01-31T10:42:18.931Z,25.40
2024-01-31T10:44:47.811Z,24.17
2024-01-31T10:47:14.583Z,28.20
2024-01-31T10:49:41.991Z,28.00
2024-01-31T10:52:11.986Z,28.17
2024-01-31T10:54:42.528Z,24.70
2024-01-31T10:57:10.491Z,27.20
2024-01-31T10:59:37.947Z,26.37
2024-01-31T11:02:04.835Z,25.83
2024-01-31T11:04:32.810Z,25.07
2024-01-31T11:07:04.899Z,25.87
2024-01-31T11:09:32.464Z,28.10
2024-01-31T11:12:06.954Z,27.80
2024-01-31T11:14:34.942Z,24.33
2024-01-31T11:17:21.136Z,24.73
2024-01-31T11:19:57.821Z,26.67
2024-01-31T11:22:24.337Z,27.87
2024-01-31T11:24:52.899Z,25.30
2024-01-31T11:27:19.990Z,27.20
2024-01-31T11:29:51.770Z,26.90
2024-01-31T11:32:19.373Z,25.80
2024-01-31T11:34:46.081Z,25.87
2024-01-31T11:37:12.861Z,25.90
2024-01-31T11:39:39.373Z,29.63
2024-01-31T11:42:07.801Z,28.57
2024-01-31T11:44:36.641Z,25.10
2024-01-31T11:47:03.476Z,24.40
2024-01-31T11:49:30.533Z,24.80
2024-01-31T11:51:57.281Z,26.70
2024-01-31T11:54:23.864Z,24.87
2024-01-31T11:56:51.742Z,24.50
2024-01-31T11:59:18.398Z,25.37
2024-01-31T12:01:44.923Z,25.50
2024-01-31T12:04:13.187Z,29.80
2024-01-31T12:06:39.855Z,27.77
2024-01-31T12:09:06.663Z,22.03
2024-01-31T12:11:33.896Z,27.00
2024-01-31T12:14:00.591Z,26.53
2024-01-31T12:16:27.111Z,31.10
2024-01-31T12:19:01.396Z,25.00
2024-01-31T12:21:28.358Z,26.93
2024-01-31T12:23:54.887Z,30.40
2024-01-31T12:26:21.484Z,28.43
2024-01-31T12:28:57.371Z,28.47
2024-01-31T12:31:24.111Z,31.73
2024-01-31T12:33:50.736Z,26.67
2024-01-31T12:36:17.453Z,29.07
2024-01-31T12:38:44.118Z,28.63
2024-01-31T12:41:10.902Z,27.70
2024-01-31T12:43:37.913Z,28.83
2024-01-31T12:46:05.028Z,25.73
2024-01-31T12:48:31.953Z,30.00
2024-01-31T12:50:58.713Z,28.80
2024-01-31T12:53:25.625Z,29.57
2024-01-31T12:55:52.145Z,32.43
2024-01-31T12:58:18.647Z,25.90
2024-01-31T13:00:45.174Z,36.60
2024-01-31T13:03:11.742Z,26.70
2024-01-31T13:05:38.733Z,27.83
2024-01-31T13:08:05.803Z,29.40
2024-01-31T13:10:32.979Z,30.90
2024-01-31T13:12:59.472Z,29.23
2024-01-31T13:15:26.571Z,33.83
2024-01-31T13:17:53.213Z,33.67
2024-01-31T13:20:19.717Z,24.33
2024-01-31T13:22:46.187Z,31.53
2024-01-31T13:25:12.718Z,30.50
2024-01-31T13:27:39.210Z,28.80
2024-01-31T13:30:08.717Z,30.13
2024-01-31T13:32:37.450Z,34.23
2024-01-31T13:35:04.695Z,30.30
2024-01-31T13:37:31.309Z,32.57
2024-01-31T13:39:58.721Z,28.07
2024-01-31T13:42:25.249Z,30.80
2024-01-31T13:44:51.824Z,28.00
2024-01-31T13:47:18.393Z,27.57
2024-01-31T13:49:45.051Z,25.70
2024-01-31T13:52:11.651Z,33.20
2024-01-31T13:54:38.321Z,31.80
2024-01-31T13:57:04.998Z,28.50
2024-01-31T13:59:32.315Z,30.67
2024-01-31T14:01:59.054Z,32.00
2024-01-31T14:04:27.569Z,29.80
2024-01-31T14:06:54.491Z,28.40
2024-01-31T14:09:22.447Z,30.97
2024-01-31T14:11:49.140Z,31.80
2024-01-31T14:14:16.136Z,32.27
2024-01-31T14:16:42.802Z,31.37
2024-01-31T14:19:09.324Z,30.43
2024-01-31T14:21:35.837Z,27.00
2024-01-31T14:24:12.546Z,31.17
2024-01-31T14:26:50.386Z,29.87
2024-01-31T14:29:16.932Z,30.13
2024-01-31T14:31:44.901Z,36.23
2024-01-31T14:34:12.009Z,25.27
2024-01-31T14:36:39.976Z,30.67
2024-01-31T14:39:07.277Z,29.60
2024-01-31T14:41:33.859Z,31.93
2024-01-31T14:44:00.428Z,26.17
2024-01-31T14:46:26.936Z,27.43
2024-01-31T14:48:53.793Z,28.50
2024-01-31T14:51:20.508Z,28.10
2024-01-31T14:53:48.504Z,28.10
2024-01-31T14:56:15.391Z,32.37
2024-01-31T14:58:41.899Z,33.00
2024-01-31T15:01:10.046Z,28.60
2024-01-31T15:03:36.599Z,29.67
2024-01-31T15:06:03.425Z,30.50
2024-01-31T15:08:30.073Z,30.37
2024-01-31T15:10:56.829Z,31.37
2024-01-31T15:13:23.361Z,28.30
2024-01-31T15:15:49.909Z,30.63
2024-01-31T15:18:16.679Z,28.13
2024-01-31T15:20:43.373Z,28.43
2024-01-31T15:23:09.895Z,31.67
2024-01-31T15:25:37.943Z,29.83
2024-01-31T15:28:04.581Z,30.00
2024-01-31T15:30:31.129Z,30.73
2024-01-31T15:32:57.770Z,31.57
2024-01-31T15:35:24.387Z,32.00
2024-01-31T15:37:52.550Z,29.80
2024-01-31T15:40:21.275Z,33.97
2024-01-31T15:42:48.058Z,31.50
2024-01-31T15:45:14.652Z,34.23
2024-01-31T15:47:41.200Z,32.00
2024-01-31T15:50:07.776Z,27.40
2024-01-31T15:52:34.289Z,37.87
2024-01-31T15:55:00.830Z,32.13
2024-01-31T15:57:27.422Z,33.33
2024-01-31T15:59:54.927Z,30.60
2024-01-31T16:02:21.799Z,31.60
2024-01-31T16:04:48.303Z,34.67
2024-01-31T16:07:17.874Z,33.47
2024-01-31T16:09:45.511Z,32.50
2024-01-31T16:12:12.062Z,30.33
2024-01-31T16:14:39.169Z,30.93
2024-01-31T16:17:05.754Z,36.43
2024-01-31T16:19:32.634Z,30.80
2024-01-31T16:21:59.246Z,35.47
2024-01-31T16:24:25.773Z,33.67
2024-01-31T16:26:52.285Z,36.40
2024-01-31T16:29:18.755Z,30.80
2024-01-31T16:31:45.308Z,31.13
2024-01-31T16:34:14.976Z,31.57
2024-01-31T16:36:41.634Z,30.30
2024-01-31T16:39:08.337Z,32.47
2024-01-31T16:41:35.100Z,32.27
2024-01-31T16:44:01.755Z,29.37
2024-01-31T16:46:28.310Z,28.03
2024-01-31T16:48:57.353Z,28.50
2024-01-31T16:51:24.091Z,34.57
2024-01-31T16:53:50.743Z,30.07
2024-01-31T16:56:17.420Z,35.80
2024-01-31T16:58:43.972Z,29.13
2024-01-31T17:01:13.718Z,36.17
2024-01-31T17:03:40.577Z,28.40
2024-01-31T17:06:07.524Z,30.70
2024-01-31T17:08:34.398Z,28.93
2024-01-31T17:11:01.388Z,30.03
2024-01-31T17:13:28.033Z,31.33
2024-01-31T17:15:54.598Z,29.87
2024-01-31T17:18:22.236Z,29.30
2024-01-31T17:20:49.726Z,29.03
2024-01-31T17:23:17.070Z,32.17
2024-01-31T17:25:44.528Z,25.80
2024-01-31T17:28:11.670Z,24.73
2024-01-31T17:30:41.582Z,31.03
2024-01-31T17:33:13.306Z,26.90
2024-01-31T17:35:40.141Z,29.80
2024-01-31T17:38:06.728Z,29.03
2024-01-31T17:40:33.677Z,28.43
2024-01-31T17:43:00.984Z,27.63
2024-01-31T17:45:29.521Z,29.87
2024-01-31T17:47:56.904Z,29.00
2024-01-31T17:50:23.850Z,28.43
2024-01-31T17:52:50.420Z,27.10
2024-01-31T17:55:19.275Z,35.60
2024-01-31T17:57:48.083Z,30.10
2024-01-31T18:00:16.840Z,36.00
2024-01-31T18:02:45.336Z,26.57
2024-01-31T18:05:12.072Z,33.43
2024-01-31T18:07:39.329Z,28.60
2024-01-31T18:10:06.347Z,29.60
2024-01-31T18:12:32.938Z,31.90
2024-01-31T18:14:59.569Z,26.23
2024-01-31T18:17:26.148Z,27.53
2024-01-31T18:19:52.747Z,31.87
2024-01-31T18:22:19.454Z,32.40
2024-01-31T18:24:45.994Z,27.40
2024-01-31T18:27:12.589Z,26.93
2024-01-31T18:29:39.144Z,30.03
2024-01-31T18:32:06.313Z,29.07
2024-01-31T18:34:33.512Z,28.30
2024-01-31T18:37:00.374Z,29.87
2024-01-31T18:39:27.062Z,29.60
2024-01-31T18:41:53.710Z,32.30
2024-01-31T18:44:20.254Z,33.03
2024-01-31T18:46:46.825Z,31.40
2024-01-31T18:49:18.268Z,30.63
2024-01-31T18:51:45.280Z,27.10
2024-01-31T18:54:11.983Z,28.23
2024-01-31T18:56:39.386Z,28.47
2024-01-31T18:59:07.738Z,31.10
2024-01-31T19:01:34.776Z,28.23
2024-01-31T19:04:01.483Z,31.13
2024-01-31T19:06:28.144Z,32.40
2024-01-31T19:08:56.148Z,26.53
2024-01-31T19:11:23.249Z,29.00
2024-01-31T19:13:56.485Z,29.30
2024-01-31T19:16:22.985Z,32.83
2024-01-31T19:18:51.973Z,32.00
2024-01-31T19:21:19.132Z,29.73
2024-01-31T19:23:45.686Z,33.13
2024-01-31T19:26:12.307Z,33.20
2024-01-31T19:28:38.826Z,33.40
2024-01-31T19:31:05.336Z,32.30
2024-01-31T19:33:31.966Z,31.23
2024-01-31T19:35:58.514Z,34.23
2024-01-31T19:38:25.106Z,31.87
2024-01-31T19:40:51.613Z,29.20
2024-01-31T19:43:18.201Z,28.10
2024-01-31T19:45:44.721Z,32.00
2024-01-31T19:48:11.792Z,29.93
2024-01-31T19:50:38.516Z,28.40
2024-01-31T19:53:05.462Z,29.67
2024-01-31T19:55:32.216Z,30.23
2024-01-31T19:57:58.757Z,30.73
2024-01-31T20:00:25.261Z,30.00
2024-01-31T20:02:53.079Z,31.27
2024-01-31T20:05:19.749Z,31.30
2024-01-31T20:07:46.412Z,28.90
2024-01-31T20:10:12.969Z,25.33
2024-01-31T20:12:39.492Z,32.30
2024-01-31T20:15:07.113Z,28.70
2024-01-31T20:17:33.934Z,32.20
2024-01-31T20:20:00.630Z,32.90
2024-01-31T20:22:27.175Z,30.27
2024-01-31T20:24:53.656Z,35.87
2024-01-31T20:27:22.172Z,30.90
2024-01-31T20:29:49.995Z,37.33
2024-01-31T20:32:16.510Z,36.93
2024-01-31T20:34:43.046Z,33.93
2024-01-31T20:37:10.225Z,35.23
2024-01-31T20:39:39.774Z,35.00
2024-01-31T20:42:07.465Z,31.10
2024-01-31T20:44:34.342Z,31.53
2024-01-31T20:47:00.922Z,44.30
2024-01-31T20:49:27.517Z,30.03
2024-01-31T20:51:54.417Z,29.23
2024-01-31T20:54:21.082Z,32.53
2024-01-31T20:56:47.593Z,33.50
2024-01-31T20:59:14.065Z,33.23
2024-01-31T21:01:43.824Z,32.43
2024-01-31T21:04:10.430Z,32.57
2024-01-31T21:06:37.208Z,30.27
2024-01-31T21:09:03.937Z,31.63
2024-01-31T21:11:30.491Z,32.90
2024-01-31T21:13:57.029Z,29.97
2024-01-31T21:16:23.513Z,28.03
2024-01-31T21:18:50.406Z,28.97
2024-01-31T21:21:19.255Z,33.57
2024-01-31T21:23:45.874Z,30.93
2024-01-31T21:26:12.516Z,30.57
2024-01-31T21:28:38.983Z,33.47
2024-01-31T21:31:05.495Z,29.07
2024-01-31T21:33:32.060Z,30.10
2024-01-31T21:35:58.816Z,35.40
2024-01-31T21:38:25.340Z,29.40
2024-01-31T21:40:53.643Z,30.90
2024-01-31T21:43:20.888Z,26.10
2024-01-31T21:45:47.380Z,29.27
2024-01-31T21:48:14.006Z,31.33
2024-01-31T21:50:40.660Z,31.00
2024-01-31T21:53:07.202Z,28.43
2024-01-31T21:55:35.861Z,29.00
2024-01-31T21:58:02.395Z,32.60
2024-01-31T22:00:28.867Z,31.00
2024-01-31T22:02:55.526Z,29.37
2024-01-31T22:05:22.239Z,32.27
2024-01-31T22:07:48.725Z,31.63
2024-01-31T22:10:15.246Z,30.03
2024-01-31T22:12:41.726Z,30.13
2024-01-31T22:15:09.609Z,32.03
2024-01-31T22:17:36.346Z,31.73
2024-01-31T22:20:02.988Z,30.23
2024-01-31T22:22:29.703Z,29.07
2024-01-31T22:24:56.207Z,31.10
2024-01-31T22:27:22.830Z,29.33
2024-01-31T22:29:49.425Z,31.97
2024-01-31T22:32:15.961Z,33.63
2024-01-31T22:34:42.550Z,33.20
2024-01-31T22:37:09.165Z,30.80
2024-01-31T22:39:35.861Z,31.93
2024-01-31T22:42:02.603Z,27.87
2024-01-31T22:44:29.154Z,31.20
2024-01-31T22:46:55.651Z,32.20
2024-01-31T22:49:22.387Z,30.47
2024-01-31T22:51:49.315Z,31.03
2024-01-31T22:54:15.871Z,29.97
2024-01-31T22:56:42.511Z,30.90
2024-01-31T22:59:09.147Z,31.17
2024-01-31T23:01:35.674Z,31.43
2024-01-31T23:04:04.731Z,31.77
2024-01-31T23:06:31.738Z,31.20
2024-01-31T23:08:59.162Z,31.00
2024-01-31T23:11:25.777Z,33.00
2024-01-31T23:13:52.885Z,33.50
2024-01-31T23:16:19.448Z,28.30
2024-01-31T23:18:46.150Z,34.20
2024-01-31T23:21:12.850Z,30.23
2024-01-31T23:23:40.744Z,31.93
2024-01-31T23:26:07.348Z,30.27
2024-01-31T23:28:33.811Z,30.93
2024-01-31T23:31:00.334Z,26.07
2024-01-31T23:33:26.967Z,29.60
2024-01-31T23:35:53.544Z,29.70
2024-01-31T23:38:20.104Z,28.40
2024-01-31T23:40:46.589Z,27.73
2024-01-31T23:43:13.063Z,29.23
2024-01-31T23:45:39.671Z,29.00
2024-01-31T23:48:06.839Z,33.90
2024-01-31T23:50:33.421Z,29.07
2024-01-31T23:52:59.946Z,28.40
2024-01-31T23:55:26.627Z,30.53
2024-01-31T23:57:53.175Z,32.03
